sensor_id;sensor_type;location;lat;lon;timestamp;temperature;humidity
57566;DHT22;63999;43.882;-0.310;2023-02-25T00:02:23;8.30;65.10
57566;DHT22;63999;43.882;-0.310;2023-02-25T00:04:49;8.20;65.20
57566;DHT22;63999;43.882;-0.310;2023-02-25T00:07:15;8.20;65.20
57566;DHT22;63999;43.882;-0.310;2023-02-25T00:09:40;8.20;64.90
57566;DHT22;63999;43.882;-0.310;2023-02-25T00:12:06;8.20;65.10
57566;DHT22;63999;43.882;-0.310;2023-02-25T00:14:32;8.20;64.90
57566;DHT22;63999;43.882;-0.310;2023-02-25T00:16:58;8.10;65.00
57566;DHT22;63999;43.882;-0.310;2023-02-25T00:19:24;8.10;65.20
57566;DHT22;63999;43.882;-0.310;2023-02-25T00:21:51;8.20;65.30
57566;DHT22;63999;43.882;-0.310;2023-02-25T00:24:16;8.10;65.10
57566;DHT22;63999;43.882;-0.310;2023-02-25T00:26:43;8.10;65.00
57566;DHT22;63999;43.882;-0.310;2023-02-25T00:29:09;8.10;65.10
57566;DHT22;63999;43.882;-0.310;2023-02-25T00:31:34;8.10;65.00
57566;DHT22;63999;43.882;-0.310;2023-02-25T00:34:00;8.10;64.90
57566;DHT22;63999;43.882;-0.310;2023-02-25T00:36:26;8.00;65.20
57566;DHT22;63999;43.882;-0.310;2023-02-25T00:38:54;8.00;65.40
57566;DHT22;63999;43.882;-0.310;2023-02-25T00:41:23;8.00;65.30
57566;DHT22;63999;43.882;-0.310;2023-02-25T00:43:56;8.00;65.30
57566;DHT22;63999;43.882;-0.310;2023-02-25T00:46:23;8.00;65.10
57566;DHT22;63999;43.882;-0.310;2023-02-25T00:48:49;8.00;65.10
57566;DHT22;63999;43.882;-0.310;2023-02-25T00:51:23;8.00;65.20
57566;DHT22;63999;43.882;-0.310;2023-02-25T00:53:49;8.00;65.00
57566;DHT22;63999;43.882;-0.310;2023-02-25T00:56:16;8.00;65.40
57566;DHT22;63999;43.882;-0.310;2023-02-25T00:58:45;8.00;65.40
57566;DHT22;63999;43.882;-0.310;2023-02-25T01:01:31;8.00;65.40
57566;DHT22;63999;43.882;-0.310;2023-02-25T01:04:03;7.90;65.30
57566;DHT22;63999;43.882;-0.310;2023-02-25T01:06:31;7.90;65.30
57566;DHT22;63999;43.882;-0.310;2023-02-25T01:08:57;8.00;65.30
57566;DHT22;63999;43.882;-0.310;2023-02-25T01:11:27;7.90;65.40
57566;DHT22;63999;43.882;-0.310;2023-02-25T01:14:00;7.90;65.30
57566;DHT22;63999;43.882;-0.310;2023-02-25T01:16:28;7.80;65.40
57566;DHT22;63999;43.882;-0.310;2023-02-25T01:18:56;7.80;65.30
57566;DHT22;63999;43.882;-0.310;2023-02-25T01:21:25;7.80;65.20
57566;DHT22;63999;43.882;-0.310;2023-02-25T01:23:55;7.80;65.00
57566;DHT22;63999;43.882;-0.310;2023-02-25T01:26:26;7.80;65.30
57566;DHT22;63999;43.882;-0.310;2023-02-25T01:28:52;7.80;65.00
57566;DHT22;63999;43.882;-0.310;2023-02-25T01:31:19;7.80;65.10
57566;DHT22;63999;43.882;-0.310;2023-02-25T01:33:58;7.80;65.40
57566;DHT22;63999;43.882;-0.310;2023-02-25T01:36:25;7.80;65.20
57566;DHT22;63999;43.882;-0.310;2023-02-25T01:38:51;7.70;65.30
57566;DHT22;63999;43.882;-0.310;2023-02-25T01:41:17;7.70;65.40
57566;DHT22;63999;43.882;-0.310;2023-02-25T01:44:17;7.70;65.40
57566;DHT22;63999;43.882;-0.310;2023-02-25T01:46:45;7.60;64.90
57566;DHT22;63999;43.882;-0.310;2023-02-25T01:49:26;7.60;65.20
57566;DHT22;63999;43.882;-0.310;2023-02-25T01:52:14;7.60;65.00
57566;DHT22;63999;43.882;-0.310;2023-02-25T01:54:43;7.60;65.10
57566;DHT22;63999;43.882;-0.310;2023-02-25T01:57:12;7.60;65.00
57566;DHT22;63999;43.882;-0.310;2023-02-25T01:59:40;7.60;65.10
57566;DHT22;63999;43.882;-0.310;2023-02-25T02:02:08;7.60;65.10
57566;DHT22;63999;43.882;-0.310;2023-02-25T02:04:36;7.50;65.10
57566;DHT22;63999;43.882;-0.310;2023-02-25T02:07:03;7.50;65.20
57566;DHT22;63999;43.882;-0.310;2023-02-25T02:09:30;7.50;65.10
57566;DHT22;63999;43.882;-0.310;2023-02-25T02:11:58;7.50;64.80
57566;DHT22;63999;43.882;-0.310;2023-02-25T02:14:32;7.50;64.70
57566;DHT22;63999;43.882;-0.310;2023-02-25T02:17:17;7.50;64.70
57566;DHT22;63999;43.882;-0.310;2023-02-25T02:20:05;7.50;64.90
57566;DHT22;63999;43.882;-0.310;2023-02-25T02:25:44;7.40;64.60
57566;DHT22;63999;43.882;-0.310;2023-02-25T02:33:56;7.40;65.10
57566;DHT22;63999;43.882;-0.310;2023-02-25T02:41:36;7.40;65.00
57566;DHT22;63999;43.882;-0.310;2023-02-25T02:44:17;7.30;65.00
57566;DHT22;63999;43.882;-0.310;2023-02-25T02:46:53;7.30;65.20
57566;DHT22;63999;43.882;-0.310;2023-02-25T02:49:45;7.30;65.00
57566;DHT22;63999;43.882;-0.310;2023-02-25T02:52:17;7.20;65.10
57566;DHT22;63999;43.882;-0.310;2023-02-25T02:54:51;7.20;64.90
57566;DHT22;63999;43.882;-0.310;2023-02-25T02:57:20;7.20;65.00
57566;DHT22;63999;43.882;-0.310;2023-02-25T02:59:51;7.20;65.10
57566;DHT22;63999;43.882;-0.310;2023-02-25T03:02:39;7.20;64.80
57566;DHT22;63999;43.882;-0.310;2023-02-25T03:05:10;7.20;65.00
57566;DHT22;63999;43.882;-0.310;2023-02-25T03:07:42;7.20;65.00
57566;DHT22;63999;43.882;-0.310;2023-02-25T03:10:13;7.20;65.00
57566;DHT22;63999;43.882;-0.310;2023-02-25T03:12:40;7.10;64.90
57566;DHT22;63999;43.882;-0.310;2023-02-25T03:15:06;7.10;65.20
57566;DHT22;63999;43.882;-0.310;2023-02-25T03:17:41;7.10;64.80
57566;DHT22;63999;43.882;-0.310;2023-02-25T03:20:16;7.10;64.80
57566;DHT22;63999;43.882;-0.310;2023-02-25T03:22:46;7.10;64.80
57566;DHT22;63999;43.882;-0.310;2023-02-25T03:25:20;7.00;65.10
57566;DHT22;63999;43.882;-0.310;2023-02-25T03:27:51;7.00;64.80
57566;DHT22;63999;43.882;-0.310;2023-02-25T03:30:36;7.00;65.00
57566;DHT22;63999;43.882;-0.310;2023-02-25T03:33:09;7.00;65.10
57566;DHT22;63999;43.882;-0.310;2023-02-25T03:35:36;7.00;64.80
57566;DHT22;63999;43.882;-0.310;2023-02-25T03:38:10;7.00;65.20
57566;DHT22;63999;43.882;-0.310;2023-02-25T03:40:37;7.00;65.10
57566;DHT22;63999;43.882;-0.310;2023-02-25T03:43:16;7.00;65.00
57566;DHT22;63999;43.882;-0.310;2023-02-25T03:45:45;7.00;65.00
57566;DHT22;63999;43.882;-0.310;2023-02-25T03:48:13;7.00;65.00
57566;DHT22;63999;43.882;-0.310;2023-02-25T03:50:59;6.90;65.10
57566;DHT22;63999;43.882;-0.310;2023-02-25T03:53:27;6.90;65.30
57566;DHT22;63999;43.882;-0.310;2023-02-25T03:55:54;6.90;65.00
57566;DHT22;63999;43.882;-0.310;2023-02-25T03:58:20;6.90;65.20
57566;DHT22;63999;43.882;-0.310;2023-02-25T04:00:47;6.90;65.30
57566;DHT22;63999;43.882;-0.310;2023-02-25T04:03:15;6.90;65.30
57566;DHT22;63999;43.882;-0.310;2023-02-25T04:05:41;6.90;65.00
57566;DHT22;63999;43.882;-0.310;2023-02-25T04:08:07;6.80;65.00
57566;DHT22;63999;43.882;-0.310;2023-02-25T04:10:40;6.80;65.30
57566;DHT22;63999;43.882;-0.310;2023-02-25T04:13:09;6.80;65.20
57566;DHT22;63999;43.882;-0.310;2023-02-25T04:15:35;6.80;65.10
57566;DHT22;63999;43.882;-0.310;2023-02-25T04:18:01;6.80;65.30
57566;DHT22;63999;43.882;-0.310;2023-02-25T04:20:28;6.80;65.00
57566;DHT22;63999;43.882;-0.310;2023-02-25T04:22:55;6.70;65.30
57566;DHT22;63999;43.882;-0.310;2023-02-25T04:25:21;6.70;64.90
57566;DHT22;63999;43.882;-0.310;2023-02-25T04:27:47;6.70;65.20
57566;DHT22;63999;43.882;-0.310;2023-02-25T04:30:15;6.70;65.20
57566;DHT22;63999;43.882;-0.310;2023-02-25T04:32:42;6.70;65.10
57566;DHT22;63999;43.882;-0.310;2023-02-25T04:35:09;6.70;65.20
57566;DHT22;63999;43.882;-0.310;2023-02-25T04:37:40;6.70;65.20
57566;DHT22;63999;43.882;-0.310;2023-02-25T04:40:12;6.60;64.90
57566;DHT22;63999;43.882;-0.310;2023-02-25T04:42:39;6.70;64.90
57566;DHT22;63999;43.882;-0.310;2023-02-25T04:45:07;6.60;65.00
57566;DHT22;63999;43.882;-0.310;2023-02-25T04:47:34;6.60;65.00
57566;DHT22;63999;43.882;-0.310;2023-02-25T04:50:00;6.60;65.00
57566;DHT22;63999;43.882;-0.310;2023-02-25T04:52:27;6.60;65.00
57566;DHT22;63999;43.882;-0.310;2023-02-25T04:54:53;6.60;64.90
57566;DHT22;63999;43.882;-0.310;2023-02-25T04:57:19;6.60;64.80
57566;DHT22;63999;43.882;-0.310;2023-02-25T04:59:45;6.60;65.00
57566;DHT22;63999;43.882;-0.310;2023-02-25T05:02:11;6.60;64.70
57566;DHT22;63999;43.882;-0.310;2023-02-25T05:04:37;6.50;64.90
57566;DHT22;63999;43.882;-0.310;2023-02-25T05:07:05;6.50;64.90
57566;DHT22;63999;43.882;-0.310;2023-02-25T05:09:31;6.50;64.90
57566;DHT22;63999;43.882;-0.310;2023-02-25T05:11:57;6.50;65.00
57566;DHT22;63999;43.882;-0.310;2023-02-25T05:14:23;6.50;65.10
57566;DHT22;63999;43.882;-0.310;2023-02-25T05:16:49;6.40;65.10
57566;DHT22;63999;43.882;-0.310;2023-02-25T05:19:19;6.40;65.40
57566;DHT22;63999;43.882;-0.310;2023-02-25T05:21:50;6.40;65.20
57566;DHT22;63999;43.882;-0.310;2023-02-25T05:24:16;6.40;65.00
57566;DHT22;63999;43.882;-0.310;2023-02-25T05:26:41;6.40;65.00
57566;DHT22;63999;43.882;-0.310;2023-02-25T05:29:09;6.40;65.00
57566;DHT22;63999;43.882;-0.310;2023-02-25T05:31:36;6.40;65.00
57566;DHT22;63999;43.882;-0.310;2023-02-25T05:34:03;6.40;65.10
57566;DHT22;63999;43.882;-0.310;2023-02-25T05:36:29;6.30;65.00
57566;DHT22;63999;43.882;-0.310;2023-02-25T05:38:56;6.30;65.20
57566;DHT22;63999;43.882;-0.310;2023-02-25T05:41:27;6.30;64.80
57566;DHT22;63999;43.882;-0.310;2023-02-25T05:43:54;6.30;64.90
57566;DHT22;63999;43.882;-0.310;2023-02-25T05:46:20;6.30;65.00
57566;DHT22;63999;43.882;-0.310;2023-02-25T05:48:46;6.30;64.80
57566;DHT22;63999;43.882;-0.310;2023-02-25T05:51:16;6.30;65.10
57566;DHT22;63999;43.882;-0.310;2023-02-25T05:53:43;6.30;65.30
57566;DHT22;63999;43.882;-0.310;2023-02-25T05:56:15;6.20;64.90
57566;DHT22;63999;43.882;-0.310;2023-02-25T05:58:41;6.20;65.30
57566;DHT22;63999;43.882;-0.310;2023-02-25T06:01:12;6.20;65.40
57566;DHT22;63999;43.882;-0.310;2023-02-25T06:03:39;6.20;65.00
57566;DHT22;63999;43.882;-0.310;2023-02-25T06:06:06;6.20;64.90
57566;DHT22;63999;43.882;-0.310;2023-02-25T06:08:34;6.20;65.10
57566;DHT22;63999;43.882;-0.310;2023-02-25T06:11:00;6.20;65.40
57566;DHT22;63999;43.882;-0.310;2023-02-25T06:13:27;6.10;65.50
57566;DHT22;63999;43.882;-0.310;2023-02-25T06:15:52;6.20;65.40
57566;DHT22;63999;43.882;-0.310;2023-02-25T06:18:18;6.10;65.30
57566;DHT22;63999;43.882;-0.310;2023-02-25T06:20:45;6.10;65.20
57566;DHT22;63999;43.882;-0.310;2023-02-25T06:23:10;6.10;65.30
57566;DHT22;63999;43.882;-0.310;2023-02-25T06:25:36;6.10;65.20
57566;DHT22;63999;43.882;-0.310;2023-02-25T06:28:02;6.10;65.10
57566;DHT22;63999;43.882;-0.310;2023-02-25T06:30:29;6.00;65.40
57566;DHT22;63999;43.882;-0.310;2023-02-25T06:32:55;6.10;65.40
57566;DHT22;63999;43.882;-0.310;2023-02-25T06:35:21;6.00;65.20
57566;DHT22;63999;43.882;-0.310;2023-02-25T06:37:55;6.00;64.90
57566;DHT22;63999;43.882;-0.310;2023-02-25T06:40:21;5.90;64.50
57566;DHT22;63999;43.882;-0.310;2023-02-25T06:42:47;5.90;64.60
57566;DHT22;63999;43.882;-0.310;2023-02-25T06:45:13;5.90;64.80
57566;DHT22;63999;43.882;-0.310;2023-02-25T06:47:39;5.90;64.90
57566;DHT22;63999;43.882;-0.310;2023-02-25T06:50:07;6.00;65.00
57566;DHT22;63999;43.882;-0.310;2023-02-25T06:52:33;6.00;64.70
57566;DHT22;63999;43.882;-0.310;2023-02-25T06:54:59;6.00;64.80
57566;DHT22;63999;43.882;-0.310;2023-02-25T06:57:24;6.00;65.10
57566;DHT22;63999;43.882;-0.310;2023-02-25T06:59:50;5.90;65.00
57566;DHT22;63999;43.882;-0.310;2023-02-25T07:02:19;6.00;65.00
57566;DHT22;63999;43.882;-0.310;2023-02-25T07:04:46;5.90;65.30
57566;DHT22;63999;43.882;-0.310;2023-02-25T07:07:14;5.90;65.20
57566;DHT22;63999;43.882;-0.310;2023-02-25T07:09:41;5.90;65.30
57566;DHT22;63999;43.882;-0.310;2023-02-25T07:12:08;5.90;65.30
57566;DHT22;63999;43.882;-0.310;2023-02-25T07:14:34;5.80;65.20
57566;DHT22;63999;43.882;-0.310;2023-02-25T07:17:00;5.80;65.30
57566;DHT22;63999;43.882;-0.310;2023-02-25T07:19:25;5.80;65.30
57566;DHT22;63999;43.882;-0.310;2023-02-25T07:21:51;5.80;65.30
57566;DHT22;63999;43.882;-0.310;2023-02-25T07:24:17;5.80;65.30
57566;DHT22;63999;43.882;-0.310;2023-02-25T07:26:43;5.80;65.50
57566;DHT22;63999;43.882;-0.310;2023-02-25T07:29:09;5.80;65.20
57566;DHT22;63999;43.882;-0.310;2023-02-25T07:31:34;5.80;65.30
57566;DHT22;63999;43.882;-0.310;2023-02-25T07:34:00;5.70;65.50
57566;DHT22;63999;43.882;-0.310;2023-02-25T07:36:32;5.70;65.50
57566;DHT22;63999;43.882;-0.310;2023-02-25T07:39:00;5.70;65.60
57566;DHT22;63999;43.882;-0.310;2023-02-25T07:41:27;5.70;65.70
57566;DHT22;63999;43.882;-0.310;2023-02-25T07:43:55;5.70;65.70
57566;DHT22;63999;43.882;-0.310;2023-02-25T07:46:21;5.70;65.50
57566;DHT22;63999;43.882;-0.310;2023-02-25T07:48:48;5.70;65.90
57566;DHT22;63999;43.882;-0.310;2023-02-25T07:51:18;5.70;66.00
57566;DHT22;63999;43.882;-0.310;2023-02-25T07:53:46;5.70;66.20
57566;DHT22;63999;43.882;-0.310;2023-02-25T07:56:12;5.70;66.20
57566;DHT22;63999;43.882;-0.310;2023-02-25T07:58:38;5.70;66.50
57566;DHT22;63999;43.882;-0.310;2023-02-25T08:03:43;5.80;66.90
57566;DHT22;63999;43.882;-0.310;2023-02-25T08:06:12;5.80;67.00
57566;DHT22;63999;43.882;-0.310;2023-02-25T08:08:38;5.80;67.20
57566;DHT22;63999;43.882;-0.310;2023-02-25T08:11:08;5.80;67.50
57566;DHT22;63999;43.882;-0.310;2023-02-25T08:13:35;5.90;67.50
57566;DHT22;63999;43.882;-0.310;2023-02-25T08:16:05;5.90;67.80
57566;DHT22;63999;43.882;-0.310;2023-02-25T08:18:31;5.90;67.80
57566;DHT22;63999;43.882;-0.310;2023-02-25T08:20:57;5.90;67.90
57566;DHT22;63999;43.882;-0.310;2023-02-25T08:23:24;5.90;68.20
57566;DHT22;63999;43.882;-0.310;2023-02-25T08:25:54;5.90;68.30
57566;DHT22;63999;43.882;-0.310;2023-02-25T08:28:21;6.00;68.50
57566;DHT22;63999;43.882;-0.310;2023-02-25T08:30:51;6.00;68.40
57566;DHT22;63999;43.882;-0.310;2023-02-25T08:33:17;6.00;68.60
57566;DHT22;63999;43.882;-0.310;2023-02-25T08:35:43;6.00;68.90
57566;DHT22;63999;43.882;-0.310;2023-02-25T08:38:09;6.00;68.70
57566;DHT22;63999;43.882;-0.310;2023-02-25T08:40:38;6.10;68.90
57566;DHT22;63999;43.882;-0.310;2023-02-25T08:43:04;6.10;69.10
57566;DHT22;63999;43.882;-0.310;2023-02-25T08:45:30;6.10;69.10
57566;DHT22;63999;43.882;-0.310;2023-02-25T08:47:56;6.10;69.10
57566;DHT22;63999;43.882;-0.310;2023-02-25T08:50:22;6.10;69.10
57566;DHT22;63999;43.882;-0.310;2023-02-25T08:52:51;6.10;69.30
57566;DHT22;63999;43.882;-0.310;2023-02-25T08:55:17;6.20;69.50
57566;DHT22;63999;43.882;-0.310;2023-02-25T08:57:43;6.20;69.90
57566;DHT22;63999;43.882;-0.310;2023-02-25T09:00:11;6.20;70.40
57566;DHT22;63999;43.882;-0.310;2023-02-25T09:02:40;6.20;70.20
57566;DHT22;63999;43.882;-0.310;2023-02-25T09:05:06;6.30;70.40
57566;DHT22;63999;43.882;-0.310;2023-02-25T09:07:32;6.30;70.40
57566;DHT22;63999;43.882;-0.310;2023-02-25T09:09:58;6.30;70.40
57566;DHT22;63999;43.882;-0.310;2023-02-25T09:12:24;6.40;70.50
57566;DHT22;63999;43.882;-0.310;2023-02-25T09:14:50;6.40;70.70
57566;DHT22;63999;43.882;-0.310;2023-02-25T09:17:16;6.40;70.80
57566;DHT22;63999;43.882;-0.310;2023-02-25T09:19:42;6.50;70.80
57566;DHT22;63999;43.882;-0.310;2023-02-25T09:22:08;6.50;70.80
57566;DHT22;63999;43.882;-0.310;2023-02-25T09:24:35;6.50;70.80
57566;DHT22;63999;43.882;-0.310;2023-02-25T09:27:05;6.60;70.80
57566;DHT22;63999;43.882;-0.310;2023-02-25T09:29:36;6.60;71.00
57566;DHT22;63999;43.882;-0.310;2023-02-25T09:32:04;6.60;71.00
57566;DHT22;63999;43.882;-0.310;2023-02-25T09:34:30;6.70;70.90
57566;DHT22;63999;43.882;-0.310;2023-02-25T09:36:59;6.70;70.90
57566;DHT22;63999;43.882;-0.310;2023-02-25T09:39:25;6.70;70.70
57566;DHT22;63999;43.882;-0.310;2023-02-25T09:42:08;6.80;70.70
57566;DHT22;63999;43.882;-0.310;2023-02-25T09:44:54;6.80;70.80
57566;DHT22;63999;43.882;-0.310;2023-02-25T09:52:29;6.90;70.80
57566;DHT22;63999;43.882;-0.310;2023-02-25T09:57:38;7.00;70.70
57566;DHT22;63999;43.882;-0.310;2023-02-25T10:00:26;7.00;71.00
57566;DHT22;63999;43.882;-0.310;2023-02-25T10:03:04;7.00;71.00
57566;DHT22;63999;43.882;-0.310;2023-02-25T10:11:02;7.20;71.50
57566;DHT22;63999;43.882;-0.310;2023-02-25T10:18:52;7.20;71.40
57566;DHT22;63999;43.882;-0.310;2023-02-25T10:21:47;7.20;71.40
57566;DHT22;63999;43.882;-0.310;2023-02-25T10:27:27;7.30;71.50
57566;DHT22;63999;43.882;-0.310;2023-02-25T10:30:00;7.30;71.50
57566;DHT22;63999;43.882;-0.310;2023-02-25T10:32:33;7.30;71.50
57566;DHT22;63999;43.882;-0.310;2023-02-25T10:35:11;7.40;71.40
57566;DHT22;63999;43.882;-0.310;2023-02-25T10:37:38;7.40;71.40
57566;DHT22;63999;43.882;-0.310;2023-02-25T10:40:06;7.40;71.20
57566;DHT22;63999;43.882;-0.310;2023-02-25T10:42:36;7.40;71.20
57566;DHT22;63999;43.882;-0.310;2023-02-25T10:45:10;7.40;71.30
57566;DHT22;63999;43.882;-0.310;2023-02-25T10:47:39;7.50;71.40
57566;DHT22;63999;43.882;-0.310;2023-02-25T10:52:53;7.50;71.50
57566;DHT22;63999;43.882;-0.310;2023-02-25T10:58:21;7.50;71.20
57566;DHT22;63999;43.882;-0.310;2023-02-25T11:00:55;7.50;71.40
57566;DHT22;63999;43.882;-0.310;2023-02-25T11:03:23;7.60;71.40
57566;DHT22;63999;43.882;-0.310;2023-02-25T11:05:49;7.60;71.40
57566;DHT22;63999;43.882;-0.310;2023-02-25T11:08:27;7.60;71.50
57566;DHT22;63999;43.882;-0.310;2023-02-25T11:11:14;7.70;71.40
57566;DHT22;63999;43.882;-0.310;2023-02-25T11:13:42;7.80;71.40
57566;DHT22;63999;43.882;-0.310;2023-02-25T11:16:11;7.80;71.50
57566;DHT22;63999;43.882;-0.310;2023-02-25T11:18:39;7.80;71.50
57566;DHT22;63999;43.882;-0.310;2023-02-25T11:21:08;7.80;71.50
57566;DHT22;63999;43.882;-0.310;2023-02-25T11:23:39;7.90;71.50
57566;DHT22;63999;43.882;-0.310;2023-02-25T11:26:14;7.90;71.40
57566;DHT22;63999;43.882;-0.310;2023-02-25T11:28:45;7.90;71.40
57566;DHT22;63999;43.882;-0.310;2023-02-25T11:31:20;8.00;71.20
57566;DHT22;63999;43.882;-0.310;2023-02-25T11:33:56;8.00;71.50
57566;DHT22;63999;43.882;-0.310;2023-02-25T11:36:28;8.00;71.60
57566;DHT22;63999;43.882;-0.310;2023-02-25T11:41:43;8.00;71.60
57566;DHT22;63999;43.882;-0.310;2023-02-25T11:44:39;8.00;71.50
57566;DHT22;63999;43.882;-0.310;2023-02-25T11:52:26;8.10;71.40
57566;DHT22;63999;43.882;-0.310;2023-02-25T11:58:07;8.10;71.00
57566;DHT22;63999;43.882;-0.310;2023-02-25T12:00:48;8.20;70.70
57566;DHT22;63999;43.882;-0.310;2023-02-25T12:03:41;8.20;70.50
57566;DHT22;63999;43.882;-0.310;2023-02-25T12:06:48;8.20;70.40
57566;DHT22;63999;43.882;-0.310;2023-02-25T12:15:20;8.30;70.20
57566;DHT22;63999;43.882;-0.310;2023-02-25T12:29:31;8.40;69.70
57566;DHT22;63999;43.882;-0.310;2023-02-25T12:43:21;8.50;69.60
57566;DHT22;63999;43.882;-0.310;2023-02-25T12:46:14;8.50;69.60
57566;DHT22;63999;43.882;-0.310;2023-02-25T13:00:02;8.50;69.90
57566;DHT22;63999;43.882;-0.310;2023-02-25T13:12:10;8.50;70.00
57566;DHT22;63999;43.882;-0.310;2023-02-25T13:48:18;8.60;70.00
57566;DHT22;63999;43.882;-0.310;2023-02-25T14:16:05;8.80;70.30
57566;DHT22;63999;43.882;-0.310;2023-02-25T14:21:39;8.90;70.50
57566;DHT22;63999;43.882;-0.310;2023-02-25T14:27:07;8.90;70.20
57566;DHT22;63999;43.882;-0.310;2023-02-25T14:40:50;8.90;70.30
57566;DHT22;63999;43.882;-0.310;2023-02-25T14:43:33;9.00;70.40
57566;DHT22;63999;43.882;-0.310;2023-02-25T14:48:46;9.00;70.50
57566;DHT22;63999;43.882;-0.310;2023-02-25T15:03:49;9.00;70.50
57566;DHT22;63999;43.882;-0.310;2023-02-25T15:21:45;9.00;70.70
57566;DHT22;63999;43.882;-0.310;2023-02-25T15:26:57;9.00;70.50
57566;DHT22;63999;43.882;-0.310;2023-02-25T15:32:10;9.10;71.10
57566;DHT22;63999;43.882;-0.310;2023-02-25T15:34:57;9.10;70.80
57566;DHT22;63999;43.882;-0.310;2023-02-25T15:40:00;9.10;70.40
57566;DHT22;63999;43.882;-0.310;2023-02-25T15:42:49;9.10;70.90
57566;DHT22;63999;43.882;-0.310;2023-02-25T15:55:51;9.20;71.30
57566;DHT22;63999;43.882;-0.310;2023-02-25T16:03:43;9.20;71.50
57566;DHT22;63999;43.882;-0.310;2023-02-25T16:06:10;9.20;71.10
57566;DHT22;63999;43.882;-0.310;2023-02-25T16:13:57;9.20;71.60
57566;DHT22;63999;43.882;-0.310;2023-02-25T16:16:27;9.20;71.10
57566;DHT22;63999;43.882;-0.310;2023-02-25T16:18:55;9.20;71.40
57566;DHT22;63999;43.882;-0.310;2023-02-25T16:21:24;9.20;71.00
57566;DHT22;63999;43.882;-0.310;2023-02-25T16:23:52;9.20;71.10
57566;DHT22;63999;43.882;-0.310;2023-02-25T16:26:41;9.20;71.00
57566;DHT22;63999;43.882;-0.310;2023-02-25T16:31:55;9.20;71.10
57566;DHT22;63999;43.882;-0.310;2023-02-25T16:39:30;9.20;71.20
57566;DHT22;63999;43.882;-0.310;2023-02-25T16:42:02;9.20;71.40
57566;DHT22;63999;43.882;-0.310;2023-02-25T16:44:32;9.20;71.40
57566;DHT22;63999;43.882;-0.310;2023-02-25T16:46:59;9.20;71.40
57566;DHT22;63999;43.882;-0.310;2023-02-25T16:49:39;9.20;71.50
57566;DHT22;63999;43.882;-0.310;2023-02-25T16:52:16;9.20;71.40
57566;DHT22;63999;43.882;-0.310;2023-02-25T16:54:45;9.20;71.40
57566;DHT22;63999;43.882;-0.310;2023-02-25T16:57:22;9.20;71.50
57566;DHT22;63999;43.882;-0.310;2023-02-25T16:59:49;9.20;71.80
57566;DHT22;63999;43.882;-0.310;2023-02-25T17:04:46;9.20;71.90
57566;DHT22;63999;43.882;-0.310;2023-02-25T17:07:17;9.20;71.60
57566;DHT22;63999;43.882;-0.310;2023-02-25T17:12:15;9.30;72.00
57566;DHT22;63999;43.882;-0.310;2023-02-25T17:14:46;9.20;72.00
57566;DHT22;63999;43.882;-0.310;2023-02-25T17:17:27;9.20;72.10
57566;DHT22;63999;43.882;-0.310;2023-02-25T17:19:54;9.30;72.30
57566;DHT22;63999;43.882;-0.310;2023-02-25T17:22:23;9.30;72.50
57566;DHT22;63999;43.882;-0.310;2023-02-25T17:24:51;9.30;72.70
57566;DHT22;63999;43.882;-0.310;2023-02-25T17:27:18;9.20;72.70
57566;DHT22;63999;43.882;-0.310;2023-02-25T17:29:46;9.30;73.00
57566;DHT22;63999;43.882;-0.310;2023-02-25T17:32:23;9.40;72.70
57566;DHT22;63999;43.882;-0.310;2023-02-25T17:34:53;9.40;72.80
57566;DHT22;63999;43.882;-0.310;2023-02-25T17:37:20;9.40;72.90
57566;DHT22;63999;43.882;-0.310;2023-02-25T17:39:47;9.40;72.80
57566;DHT22;63999;43.882;-0.310;2023-02-25T17:42:35;9.40;72.70
57566;DHT22;63999;43.882;-0.310;2023-02-25T17:45:05;9.40;72.70
57566;DHT22;63999;43.882;-0.310;2023-02-25T17:47:50;9.40;72.80
57566;DHT22;63999;43.882;-0.310;2023-02-25T17:52:53;9.40;73.20
57566;DHT22;63999;43.882;-0.310;2023-02-25T17:55:28;9.40;73.10
57566;DHT22;63999;43.882;-0.310;2023-02-25T17:58:00;9.40;73.30
57566;DHT22;63999;43.882;-0.310;2023-02-25T18:00:29;9.40;73.30
57566;DHT22;63999;43.882;-0.310;2023-02-25T18:03:19;9.40;73.30
57566;DHT22;63999;43.882;-0.310;2023-02-25T18:05:51;9.40;73.60
57566;DHT22;63999;43.882;-0.310;2023-02-25T18:08:19;9.40;73.40
57566;DHT22;63999;43.882;-0.310;2023-02-25T18:10:50;9.40;74.00
57566;DHT22;63999;43.882;-0.310;2023-02-25T18:13:34;9.40;74.10
57566;DHT22;63999;43.882;-0.310;2023-02-25T18:18:54;9.40;73.80
57566;DHT22;63999;43.882;-0.310;2023-02-25T18:21:21;9.40;74.10
57566;DHT22;63999;43.882;-0.310;2023-02-25T18:23:49;9.40;73.80
57566;DHT22;63999;43.882;-0.310;2023-02-25T18:26:23;9.40;73.60
57566;DHT22;63999;43.882;-0.310;2023-02-25T18:28:50;9.40;73.60
57566;DHT22;63999;43.882;-0.310;2023-02-25T18:31:17;9.40;73.60
57566;DHT22;63999;43.882;-0.310;2023-02-25T18:33:47;9.40;73.80
57566;DHT22;63999;43.882;-0.310;2023-02-25T18:36:22;9.40;73.90
57566;DHT22;63999;43.882;-0.310;2023-02-25T18:38:52;9.40;73.50
57566;DHT22;63999;43.882;-0.310;2023-02-25T18:41:18;9.40;73.90
57566;DHT22;63999;43.882;-0.310;2023-02-25T18:43:44;9.40;73.70
57566;DHT22;63999;43.882;-0.310;2023-02-25T18:46:10;9.40;73.90
57566;DHT22;63999;43.882;-0.310;2023-02-25T18:48:36;9.40;74.00
57566;DHT22;63999;43.882;-0.310;2023-02-25T18:51:03;9.40;74.00
57566;DHT22;63999;43.882;-0.310;2023-02-25T18:53:30;9.50;74.20
57566;DHT22;63999;43.882;-0.310;2023-02-25T18:55:58;9.40;74.10
57566;DHT22;63999;43.882;-0.310;2023-02-25T18:58:24;9.40;74.30
57566;DHT22;63999;43.882;-0.310;2023-02-25T19:00:55;9.40;74.10
57566;DHT22;63999;43.882;-0.310;2023-02-25T19:03:27;9.50;74.00
57566;DHT22;63999;43.882;-0.310;2023-02-25T19:05:54;9.40;74.40
57566;DHT22;63999;43.882;-0.310;2023-02-25T19:08:21;9.50;74.60
57566;DHT22;63999;43.882;-0.310;2023-02-25T19:10:47;9.50;74.00
57566;DHT22;63999;43.882;-0.310;2023-02-25T19:13:21;9.50;74.70
57566;DHT22;63999;43.882;-0.310;2023-02-25T19:15:48;9.50;74.50
57566;DHT22;63999;43.882;-0.310;2023-02-25T19:18:14;9.50;74.10
57566;DHT22;63999;43.882;-0.310;2023-02-25T19:20:42;9.50;74.50
57566;DHT22;63999;43.882;-0.310;2023-02-25T19:23:13;9.50;74.30
57566;DHT22;63999;43.882;-0.310;2023-02-25T19:25:41;9.50;74.30
57566;DHT22;63999;43.882;-0.310;2023-02-25T19:28:09;9.50;74.40
57566;DHT22;63999;43.882;-0.310;2023-02-25T19:30:38;9.50;74.30
57566;DHT22;63999;43.882;-0.310;2023-02-25T19:33:05;9.50;75.10
57566;DHT22;63999;43.882;-0.310;2023-02-25T19:35:34;9.50;74.90
57566;DHT22;63999;43.882;-0.310;2023-02-25T19:38:01;9.50;74.60
57566;DHT22;63999;43.882;-0.310;2023-02-25T19:40:27;9.50;74.70
57566;DHT22;63999;43.882;-0.310;2023-02-25T19:42:57;9.50;74.90
57566;DHT22;63999;43.882;-0.310;2023-02-25T19:45:24;9.50;74.60
57566;DHT22;63999;43.882;-0.310;2023-02-25T19:47:51;9.50;74.70
57566;DHT22;63999;43.882;-0.310;2023-02-25T19:50:20;9.50;74.80
57566;DHT22;63999;43.882;-0.310;2023-02-25T19:52:46;9.50;74.60
57566;DHT22;63999;43.882;-0.310;2023-02-25T19:55:13;9.50;74.80
57566;DHT22;63999;43.882;-0.310;2023-02-25T19:57:40;9.50;74.50
57566;DHT22;63999;43.882;-0.310;2023-02-25T20:00:13;9.50;74.70
57566;DHT22;63999;43.882;-0.310;2023-02-25T20:02:39;9.50;74.80
57566;DHT22;63999;43.882;-0.310;2023-02-25T20:05:07;9.50;74.60
57566;DHT22;63999;43.882;-0.310;2023-02-25T20:07:33;9.50;74.80